Aérodrome :
LOGIN :

S'inscrire | Disclaimer

   EN    FR    IT 

 










Légende :    VFR   VFR Marginal   IFR   IFR Intensif   IFR Très Intensif
Visi : 
Plafond : 
>= 8 km
>= 3000ft
5 à 8 km
1000 à 3000 ft
1500m à 5 km
500 à 1000 ft
800 à 1500m
200 à 500 ft
< 800m
< 200 ft
Symboles :   Orages  Brouillard  Fortes neiges  Fortes précipitations  Vent > 20 kt
SIGMETs :   Divers  Orages  Givrage  Turbulence  Onde Orograph.  Cendres Volcan.






- Altitude de l'aérodrome : 124 ft
- Code IATA : NHT


EGWU - RAF Northolt

DERNIER METAR :
  • 151920Z 12002KT 6000 MIFG BR SCT230 M01/M01 Q1030 TEMPO 4000

METARs EXPIRÉS :
  • 151850Z 00000KT 7000 MIFG BR SCT230 M01/M02 Q1030 TEMPO 4000 RMK WHT TEMPO GRN
  • 151824Z 22001KT 8000 BR BKN230 M00/M01 Q1030 BECMG 7000 RMK BLU BECMG WHT
  • 151750Z 13001KT 9000 HZ BKN230 00/M01 Q1030 BECMG 7000 BR MIFG RMK BLU BECMG WHT
  • 151720Z 00000KT 9000 HZ FEW045 BKN200 01/00 Q1030 BECMG 7000 BR MIFG RMK BLU BECMG WHT
  • 151650Z 12002KT 9999 FEW045 SCT200 01/00 Q1030 BECMG 7000 BR RMK BLU BECMG WHT

TAF TAF EGWU
Valide du 15 à 18h jusqu'au 16 à 12h UTC


151658Z 1518/1612 15004KT 9000 HZ FEW045
TEMPO 1518/1522 4000 BR MIFG
PROB30
TEMPO 1523/1602 SCT024
BECMG 1602/1605 16015KT 7000 -RASN BKN006
TEMPO 1605/1608 1500 RASN BKN002
BECMG 1609/1612 24005KT 8000 -RA BKN010



MET'MAP, la Météo Aéronautique d'un coup d'oeil ! - Copyright ORBIFLY Décembre 2007 - Disclaimer

ORBIFLY MET'MAP TEAM :

Programmation & Développement : Alexandra Zaïnal
Sur une idée originale de : Baudouin d'Aumeries
Assistance à la programmation : Marc-Olivier Méhu
Soutien technique & logistique : Manuel Goepfert

Contact : metmap@orbifly.com




SOURCES & CREDITS :

   NOAA